Time;durP1;ratioP1;P1;durP2;ratioP2;P2;SDS_P1;SDS_P2;PMS_P1;PMS_P2;Temp;Humidity;BMP_temperature;BMP_pressure;BME280_temperature;BME280_humidity;BME280_pressure;Samples;Min_cycle;Max_cycle;Signal;HPM_P1;HPM_P2
2023/03/22 00:01:11;;;;;;;2.97;2.60;;;;;;;;;;4937636;29;20417;-64
2023/03/22 00:03:38;;;;;;;2.63;2.43;;;;;;;;;;4936403;29;20459;-64
2023/03/22 00:06:06;;;;;;;2.90;2.70;;;;;;;;;;4937947;29;20448;-64
2023/03/22 00:08:35;;;;;;;5.07;3.50;;;;;;;;;;4937855;29;20444;-64
2023/03/22 00:11:01;;;;;;;3.57;3.20;;;;;;;;;;4938034;29;20951;-65
2023/03/22 00:13:29;;;;;;;4.10;2.87;;;;;;;;;;4937940;29;20444;-64
2023/03/22 00:15:56;;;;;;;3.10;2.87;;;;;;;;;;4937539;29;20505;-64
2023/03/22 00:18:22;;;;;;;2.60;2.50;;;;;;;;;;4937480;29;20985;-64
2023/03/22 00:20:52;;;;;;;3.23;3.03;;;;;;;;;;4937783;29;20416;-65
2023/03/22 00:23:19;;;;;;;4.70;3.90;;;;;;;;;;4937299;29;20464;-64
2023/03/22 00:25:45;;;;;;;3.70;3.00;;;;;;;;;;4936284;29;20420;-64
2023/03/22 00:28:14;;;;;;;3.03;2.93;;;;;;;;;;4937713;29;20760;-64
2023/03/22 00:30:40;;;;;;;2.80;2.60;;;;;;;;;;4937178;29;20901;-65
2023/03/22 00:33:07;;;;;;;3.13;2.93;;;;;;;;;;4936173;29;20471;-64
2023/03/22 00:35:33;;;;;;;3.40;3.20;;;;;;;;;;4937177;29;20474;-64
2023/03/22 00:38:05;;;;;;;2.90;2.80;;;;;;;;;;4937203;29;20495;-64
2023/03/22 00:40:32;;;;;;;3.47;3.27;;;;;;;;;;4937220;29;20427;-64
2023/03/22 00:42:58;;;;;;;3.50;3.20;;;;;;;;;;4936776;29;20412;-64
2023/03/22 00:45:24;;;;;;;3.97;3.50;;;;;;;;;;4936830;29;20451;-66
2023/03/22 00:47:50;;;;;;;3.30;3.00;;;;;;;;;;4935501;29;20463;-67
2023/03/22 00:50:16;;;;;;;2.63;2.43;;;;;;;;;;4936834;29;20472;-67
2023/03/22 00:52:42;;;;;;;3.63;3.43;;;;;;;;;;4936697;29;20943;-67
2023/03/22 00:55:08;;;;;;;3.60;3.30;;;;;;;;;;4936411;29;20441;-67
2023/03/22 00:57:34;;;;;;;3.80;3.27;;;;;;;;;;4936225;29;20420;-67
2023/03/22 01:00:08;;;;;;;3.80;3.43;;;;;;;;;;4936320;29;20412;-67
2023/03/22 01:02:34;;;;;;;3.17;3.03;;;;;;;;;;4936358;29;20423;-67
2023/03/22 01:05:01;;;;;;;4.70;3.23;;;;;;;;;;4935359;29;20436;-67
2023/03/22 01:07:27;;;;;;;4.77;3.10;;;;;;;;;;4936374;29;20492;-67
2023/03/22 01:09:53;;;;;;;6.67;3.20;;;;;;;;;;4936037;29;20531;-67
2023/03/22 01:12:19;;;;;;;4.80;3.27;;;;;;;;;;4934854;29;20458;-67
2023/03/22 01:14:46;;;;;;;3.63;3.30;;;;;;;;;;4936289;29;20472;-67
2023/03/22 01:17:12;;;;;;;3.70;3.50;;;;;;;;;;4936301;29;20420;-67
2023/03/22 01:19:38;;;;;;;3.37;3.17;;;;;;;;;;4935906;29;20559;-67
2023/03/22 01:22:04;;;;;;;10.80;3.47;;;;;;;;;;4936207;29;20475;-66
2023/03/22 01:24:30;;;;;;;4.17;3.67;;;;;;;;;;4935896;29;20924;-67
2023/03/22 01:26:57;;;;;;;3.63;3.33;;;;;;;;;;4936375;29;20417;-67
2023/03/22 01:29:23;;;;;;;4.40;3.43;;;;;;;;;;4935547;29;21034;-67
2023/03/22 01:31:49;;;;;;;4.27;4.00;;;;;;;;;;4935940;29;20416;-67
2023/03/22 01:34:15;;;;;;;3.90;3.60;;;;;;;;;;4935815;29;20788;-67
2023/03/22 01:36:41;;;;;;;5.37;3.90;;;;;;;;;;4934992;29;20431;-67
2023/03/22 01:39:07;;;;;;;9.10;2.83;;;;;;;;;;4935570;29;20982;-67
2023/03/22 01:41:36;;;;;;;5.20;3.37;;;;;;;;;;4935809;29;20413;-66
2023/03/22 01:44:12;;;;;;;3.10;2.97;;;;;;;;;;4935333;29;20900;-67
2023/03/22 01:46:38;;;;;;;3.90;3.50;;;;;;;;;;4935839;29;20408;-67
2023/03/22 01:49:05;;;;;;;4.37;3.07;;;;;;;;;;4935410;29;20761;-67
2023/03/22 01:51:31;;;;;;;3.87;3.30;;;;;;;;;;4935288;29;20420;-67
2023/03/22 01:54:09;;;;;;;4.00;3.70;;;;;;;;;;4935353;29;20507;-67
2023/03/22 01:56:40;;;;;;;3.77;3.37;;;;;;;;;;4935740;29;20415;-66
2023/03/22 01:59:09;;;;;;;3.80;3.60;;;;;;;;;;4934146;29;20475;-67
2023/03/22 02:01:35;;;;;;;4.40;4.10;;;;;;;;;;4935229;29;20797;-67
2023/03/22 02:04:07;;;;;;;3.30;3.10;;;;;;;;;;4934653;29;20789;-67
2023/03/22 02:06:37;;;;;;;5.53;3.53;;;;;;;;;;4935239;29;20774;-67
2023/03/22 02:09:13;;;;;;;3.73;3.50;;;;;;;;;;4935286;29;20796;-67
2023/03/22 02:11:43;;;;;;;4.10;3.80;;;;;;;;;;4935577;29;20858;-67
2023/03/22 02:14:27;;;;;;;3.30;3.20;;;;;;;;;;4935264;29;20424;-66
2023/03/22 02:17:18;;;;;;;4.03;3.73;;;;;;;;;;4934070;29;20428;-66
2023/03/22 02:19:50;;;;;;;7.50;3.87;;;;;;;;;;4935229;29;20542;-66
2023/03/22 02:22:37;;;;;;;3.43;3.30;;;;;;;;;;4935340;29;21011;-66
2023/03/22 02:25:06;;;;;;;3.50;3.30;;;;;;;;;;4935556;29;20874;-66
2023/03/22 02:27:52;;;;;;;2.97;2.77;;;;;;;;;;4939760;29;20420;-67
2023/03/22 02:30:36;;;;;;;5.30;3.97;;;;;;;;;;4946862;28;20468;-67
2023/03/22 02:33:05;;;;;;;3.50;3.17;;;;;;;;;;4941433;29;20420;-67
2023/03/22 02:35:31;;;;;;;6.63;3.73;;;;;;;;;;4940514;29;20459;-67
2023/03/22 02:38:16;;;;;;;3.83;3.20;;;;;;;;;;4939686;29;20499;-66
2023/03/22 02:40:49;;;;;;;3.90;3.60;;;;;;;;;;4934153;29;20428;-67
2023/03/22 02:43:15;;;;;;;4.40;3.13;;;;;;;;;;4934897;29;20756;-67
2023/03/22 02:45:45;;;;;;;3.67;3.20;;;;;;;;;;4935555;29;20517;-67
2023/03/22 02:48:37;;;;;;;3.47;2.90;;;;;;;;;;4938279;29;20412;-67
2023/03/22 02:51:15;;;;;;;3.47;3.07;;;;;;;;;;4940290;28;20452;-67
2023/03/22 02:53:50;;;;;;;3.83;3.63;;;;;;;;;;4939306;29;20483;-67
2023/03/22 02:56:25;;;;;;;6.90;3.50;;;;;;;;;;4938938;29;20833;-67
2023/03/22 02:58:54;;;;;;;4.53;3.20;;;;;;;;;;4939534;29;20463;-67
2023/03/22 03:01:25;;;;;;;3.50;3.20;;;;;;;;;;4938964;29;20519;-66
2023/03/22 03:03:54;;;;;;;5.97;3.40;;;;;;;;;;4939027;29;20412;-66
2023/03/22 03:06:24;;;;;;;4.60;3.00;;;;;;;;;;4938781;29;20450;-66
2023/03/22 03:08:53;;;;;;;3.50;2.67;;;;;;;;;;4938590;29;20416;-66
2023/03/22 03:11:20;;;;;;;3.47;3.03;;;;;;;;;;4938768;29;20439;-66
2023/03/22 03:13:49;;;;;;;3.37;3.10;;;;;;;;;;4938701;29;20416;-67
2023/03/22 03:16:16;;;;;;;3.17;3.07;;;;;;;;;;4937667;29;20420;-66
2023/03/22 03:18:56;;;;;;;5.80;3.50;;;;;;;;;;4938458;29;20990;-66
2023/03/22 03:21:29;;;;;;;5.13;3.30;;;;;;;;;;4936856;29;20479;-66
2023/03/22 03:24:01;;;;;;;4.93;2.97;;;;;;;;;;4937010;29;20958;-66
2023/03/22 03:26:33;;;;;;;2.97;2.77;;;;;;;;;;4937942;29;20511;-66
2023/03/22 03:29:08;;;;;;;5.63;3.13;;;;;;;;;;4938147;29;20456;-66
2023/03/22 03:31:40;;;;;;;3.10;3.00;;;;;;;;;;4937823;29;20881;-67
2023/03/22 03:34:19;;;;;;;3.23;3.13;;;;;;;;;;4938127;29;20432;-67
2023/03/22 03:36:50;;;;;;;3.50;3.23;;;;;;;;;;4936227;29;20459;-67
2023/03/22 03:39:17;;;;;;;3.23;2.97;;;;;;;;;;4938016;29;20495;-67
2023/03/22 03:41:45;;;;;;;3.23;3.07;;;;;;;;;;4937191;29;20519;-67
2023/03/22 03:44:12;;;;;;;3.30;2.83;;;;;;;;;;4938052;29;20499;-67
2023/03/22 03:46:38;;;;;;;3.30;3.10;;;;;;;;;;4937605;29;20468;-67
2023/03/22 03:49:07;;;;;;;3.30;3.10;;;;;;;;;;4938143;29;20515;-67
2023/03/22 03:51:33;;;;;;;5.03;3.00;;;;;;;;;;4937711;29;20516;-67
2023/03/22 03:54:02;;;;;;;4.47;3.97;;;;;;;;;;4936662;29;20567;-67
2023/03/22 03:56:27;;;;;;;3.30;3.00;;;;;;;;;;4937635;29;20454;-67
2023/03/22 03:58:54;;;;;;;3.33;3.13;;;;;;;;;;4936743;29;20472;-67
2023/03/22 04:01:25;;;;;;;3.20;2.90;;;;;;;;;;4937557;29;20444;-68
2023/03/22 04:03:54;;;;;;;4.00;3.80;;;;;;;;;;4937592;29;20436;-66
2023/03/22 04:06:20;;;;;;;3.17;2.87;;;;;;;;;;4937599;29;20595;-66
2023/03/22 04:08:52;;;;;;;4.23;3.93;;;;;;;;;;4937180;29;20416;-69
2023/03/22 04:11:18;;;;;;;3.40;3.20;;;;;;;;;;4936228;29;20455;-67
2023/03/22 04:13:44;;;;;;;3.83;3.37;;;;;;;;;;4937356;29;20413;-66
2023/03/22 04:16:10;;;;;;;3.40;3.20;;;;;;;;;;4936760;29;20896;-68
2023/03/22 04:18:36;;;;;;;3.23;3.00;;;;;;;;;;4937226;29;20495;-66
2023/03/22 04:21:02;;;;;;;3.23;2.93;;;;;;;;;;4935733;29;20472;-66
2023/03/22 04:23:28;;;;;;;2.90;2.70;;;;;;;;;;4936040;29;20927;-66
2023/03/22 04:25:58;;;;;;;3.40;3.20;;;;;;;;;;4935552;29;20499;-66
2023/03/22 04:28:25;;;;;;;3.27;3.00;;;;;;;;;;4937279;29;20850;-66
2023/03/22 04:30:56;;;;;;;6.23;2.70;;;;;;;;;;4936864;29;20424;-66
2023/03/22 04:33:22;;;;;;;3.90;2.90;;;;;;;;;;4937192;29;20487;-66
2023/03/22 04:35:49;;;;;;;2.73;2.53;;;;;;;;;;4936744;29;20448;-67
2023/03/22 04:38:15;;;;;;;3.20;3.07;;;;;;;;;;4936436;29;20467;-67
2023/03/22 04:40:45;;;;;;;2.93;2.73;;;;;;;;;;4936985;29;20447;-66
2023/03/22 04:43:14;;;;;;;2.90;2.80;;;;;;;;;;4936833;29;20414;-66
2023/03/22 04:45:40;;;;;;;3.07;2.87;;;;;;;;;;4936757;29;20472;-66
2023/03/22 04:48:19;;;;;;;4.63;2.50;;;;;;;;;;4936887;29;20484;-67
2023/03/22 04:50:45;;;;;;;3.30;3.20;;;;;;;;;;4936721;29;20432;-66
2023/03/22 04:53:11;;;;;;;8.83;2.93;;;;;;;;;;4936537;29;20415;-66
2023/03/22 04:55:37;;;;;;;2.87;2.77;;;;;;;;;;4936592;29;20421;-66
2023/03/22 04:58:03;;;;;;;7.90;3.07;;;;;;;;;;4935365;29;20476;-66
2023/03/22 05:00:30;;;;;;;2.90;2.70;;;;;;;;;;4935504;29;20419;-66
2023/03/22 05:02:57;;;;;;;4.50;3.17;;;;;;;;;;4936487;29;20879;-66
2023/03/22 05:05:25;;;;;;;3.20;3.00;;;;;;;;;;4936313;29;20914;-66
2023/03/22 05:07:51;;;;;;;3.13;3.03;;;;;;;;;;4936169;29;20995;-68
2023/03/22 05:10:19;;;;;;;3.00;2.80;;;;;;;;;;4936472;29;20450;-66
2023/03/22 05:12:47;;;;;;;3.70;3.40;;;;;;;;;;4936244;29;20424;-66
2023/03/22 05:15:13;;;;;;;3.23;3.13;;;;;;;;;;4935002;29;20503;-65
2023/03/22 05:17:42;;;;;;;3.87;3.10;;;;;;;;;;4934496;29;20471;-66
2023/03/22 05:20:13;;;;;;;3.70;3.60;;;;;;;;;;4936221;29;20479;-72
2023/03/22 05:22:39;;;;;;;3.63;3.30;;;;;;;;;;4935665;29;20436;-66
2023/03/22 05:25:06;;;;;;;3.20;3.00;;;;;;;;;;4935878;29;20400;-66
2023/03/22 05:27:33;;;;;;;3.60;3.30;;;;;;;;;;4935816;29;20838;-66
2023/03/22 05:29:59;;;;;;;4.50;3.37;;;;;;;;;;4935923;29;20416;-69
2023/03/22 05:32:28;;;;;;;2.80;2.60;;;;;;;;;;4935304;29;20483;-66
2023/03/22 05:34:55;;;;;;;4.90;4.17;;;;;;;;;;4934159;29;20416;-66
2023/03/22 05:37:21;;;;;;;3.27;3.17;;;;;;;;;;4935672;29;20464;-66
2023/03/22 05:39:47;;;;;;;3.80;3.67;;;;;;;;;;4935780;29;20903;-66
2023/03/22 05:42:13;;;;;;;5.07;4.40;;;;;;;;;;4934694;29;20450;-66
2023/03/22 05:44:39;;;;;;;8.23;5.37;;;;;;;;;;4935509;28;20424;-66
2023/03/22 05:47:05;;;;;;;8.63;6.20;;;;;;;;;;4935222;29;20535;-67
2023/03/22 05:49:31;;;;;;;7.33;5.30;;;;;;;;;;4935686;29;20460;-67
2023/03/22 05:51:57;;;;;;;5.73;5.23;;;;;;;;;;4935383;29;20416;-66
2023/03/22 05:54:23;;;;;;;9.30;4.90;;;;;;;;;;4935488;29;20423;-66
2023/03/22 05:56:50;;;;;;;4.83;4.43;;;;;;;;;;4935221;29;20463;-66
2023/03/22 05:59:16;;;;;;;3.60;3.50;;;;;;;;;;4935258;29;20459;-66
2023/03/22 06:01:42;;;;;;;10.13;4.90;;;;;;;;;;4934858;29;20796;-66
2023/03/22 06:04:08;;;;;;;4.10;3.90;;;;;;;;;;4935151;29;20412;-66
2023/03/22 06:06:34;;;;;;;4.80;4.20;;;;;;;;;;4935549;29;20895;-66
2023/03/22 06:09:00;;;;;;;4.83;3.87;;;;;;;;;;4935541;29;20439;-66
2023/03/22 06:11:26;;;;;;;7.17;3.63;;;;;;;;;;4935620;29;20900;-66
2023/03/22 06:14:00;;;;;;;4.10;3.77;;;;;;;;;;4935380;29;20476;-69
2023/03/22 06:16:26;;;;;;;5.07;4.60;;;;;;;;;;4933982;29;20439;-66
2023/03/22 06:18:52;;;;;;;5.90;5.40;;;;;;;;;;4935496;29;21037;-66
2023/03/22 06:21:18;;;;;;;6.17;4.10;;;;;;;;;;4935103;29;20447;-66
2023/03/22 06:23:44;;;;;;;4.03;3.60;;;;;;;;;;4935305;29;20826;-66
2023/03/22 06:26:10;;;;;;;4.60;3.83;;;;;;;;;;4935040;29;20888;-66
2023/03/22 06:28:36;;;;;;;5.30;4.90;;;;;;;;;;4935441;29;21242;-66
2023/03/22 06:31:07;;;;;;;5.63;5.10;;;;;;;;;;4935510;29;20390;-66
2023/03/22 06:33:35;;;;;;;7.10;4.70;;;;;;;;;;4934998;29;20919;-66
2023/03/22 06:36:02;;;;;;;4.80;4.40;;;;;;;;;;4935137;29;20531;-66
2023/03/22 06:38:29;;;;;;;7.97;4.50;;;;;;;;;;4934954;29;20828;-66
2023/03/22 06:40:57;;;;;;;8.53;4.40;;;;;;;;;;4934495;29;20428;-66
2023/03/22 06:43:23;;;;;;;4.33;3.63;;;;;;;;;;4933852;29;20467;-65
2023/03/22 06:45:49;;;;;;;13.83;11.03;;;;;;;;;;4934492;29;20452;-66
2023/03/22 06:48:15;;;;;;;56.43;40.20;;;;;;;;;;4935328;29;20479;-66
2023/03/22 06:50:41;;;;;;;4.40;4.00;;;;;;;;;;4933289;29;20436;-66
2023/03/22 06:53:08;;;;;;;7.90;4.00;;;;;;;;;;4935145;29;20452;-66
2023/03/22 06:55:34;;;;;;;5.30;4.23;;;;;;;;;;4935239;29;20452;-66
2023/03/22 06:58:00;;;;;;;5.67;4.47;;;;;;;;;;4933945;29;20463;-66
2023/03/22 07:00:30;;;;;;;9.83;3.70;;;;;;;;;;4934323;29;20427;-69
2023/03/22 07:02:58;;;;;;;4.03;3.67;;;;;;;;;;4935118;29;20440;-66
2023/03/22 07:05:24;;;;;;;4.30;3.90;;;;;;;;;;4934922;29;20420;-67
2023/03/22 07:07:52;;;;;;;2.87;2.77;;;;;;;;;;4934773;29;20424;-66
2023/03/22 07:10:18;;;;;;;4.93;3.00;;;;;;;;;;4934705;29;20416;-66
2023/03/22 07:12:44;;;;;;;5.80;3.27;;;;;;;;;;4934948;29;20472;-67
2023/03/22 07:15:10;;;;;;;5.50;2.83;;;;;;;;;;4935133;29;20463;-66
2023/03/22 07:17:36;;;;;;;3.43;3.13;;;;;;;;;;4934604;29;20443;-66
2023/03/22 07:20:02;;;;;;;4.83;2.83;;;;;;;;;;4935064;29;20482;-66
2023/03/22 07:22:29;;;;;;;5.20;3.20;;;;;;;;;;4934893;29;20428;-65
2023/03/22 07:24:55;;;;;;;23.83;17.00;;;;;;;;;;4934565;29;20479;-65
2023/03/22 07:27:21;;;;;;;9.63;8.63;;;;;;;;;;4934246;29;20499;-66
2023/03/22 07:29:47;;;;;;;3.60;3.00;;;;;;;;;;4934667;29;20416;-67
2023/03/22 07:32:13;;;;;;;3.30;3.10;;;;;;;;;;4934653;29;20447;-66
2023/03/22 07:34:39;;;;;;;3.50;2.90;;;;;;;;;;4936669;29;20427;-66
2023/03/22 07:37:06;;;;;;;3.67;3.37;;;;;;;;;;4938545;29;20436;-68
2023/03/22 07:39:32;;;;;;;5.20;3.23;;;;;;;;;;4937982;29;20468;-66
2023/03/22 07:41:58;;;;;;;6.10;4.40;;;;;;;;;;4938558;29;20420;-67
2023/03/22 07:44:25;;;;;;;11.37;4.63;;;;;;;;;;4937951;29;20413;-67
2023/03/22 07:46:51;;;;;;;3.20;3.00;;;;;;;;;;4938091;29;20522;-67
2023/03/22 07:49:17;;;;;;;3.50;2.90;;;;;;;;;;4937913;29;20429;-67
2023/03/22 07:51:43;;;;;;;2.40;2.20;;;;;;;;;;4937897;29;20417;-67
2023/03/22 07:54:09;;;;;;;2.87;2.50;;;;;;;;;;4936688;29;20456;-67
2023/03/22 07:56:36;;;;;;;2.83;2.63;;;;;;;;;;4937910;29;20504;-67
2023/03/22 07:59:05;;;;;;;2.70;2.50;;;;;;;;;;4936635;29;20475;-67
2023/03/22 08:01:31;;;;;;;3.00;2.10;;;;;;;;;;4938370;29;20426;-67
2023/03/22 08:03:59;;;;;;;2.23;2.10;;;;;;;;;;4938135;29;20443;-67
2023/03/22 08:06:25;;;;;;;2.70;2.40;;;;;;;;;;4937863;29;20412;-67
2023/03/22 08:08:51;;;;;;;2.30;2.20;;;;;;;;;;4937592;29;20452;-67
2023/03/22 08:11:17;;;;;;;3.20;2.37;;;;;;;;;;4937458;29;20482;-67
2023/03/22 08:13:43;;;;;;;5.43;2.50;;;;;;;;;;4937160;29;20904;-67
2023/03/22 08:16:09;;;;;;;20.43;15.93;;;;;;;;;;4937225;29;20466;-68
2023/03/22 08:18:35;;;;;;;6.40;2.23;;;;;;;;;;4937345;29;20468;-67
2023/03/22 08:21:02;;;;;;;3.33;1.97;;;;;;;;;;4937406;29;20507;-68
2023/03/22 08:23:28;;;;;;;1.97;1.90;;;;;;;;;;4937266;29;20508;-67
2023/03/22 08:25:56;;;;;;;5.20;1.50;;;;;;;;;;4937294;29;20412;-67
2023/03/22 08:28:22;;;;;;;1.67;1.57;;;;;;;;;;4937485;29;20954;-67
2023/03/22 08:30:48;;;;;;;4.00;1.43;;;;;;;;;;4937176;29;20425;-67
2023/03/22 08:33:15;;;;;;;1.10;1.10;;;;;;;;;;4936073;29;20440;-67
2023/03/22 08:35:41;;;;;;;2.47;2.37;;;;;;;;;;4937028;29;20491;-67
2023/03/22 08:38:07;;;;;;;1.20;1.20;;;;;;;;;;4937256;29;20879;-67
2023/03/22 08:40:33;;;;;;;1.33;1.33;;;;;;;;;;4937013;29;20402;-67
2023/03/22 08:42:59;;;;;;;1.53;1.53;;;;;;;;;;4937027;29;20894;-67
2023/03/22 08:45:25;;;;;;;1.57;1.37;;;;;;;;;;4935351;29;20456;-67
2023/03/22 08:47:51;;;;;;;1.37;1.37;;;;;;;;;;4936922;29;20845;-65
2023/03/22 08:50:17;;;;;;;1.50;1.40;;;;;;;;;;4936684;29;20445;-66
2023/03/22 08:52:46;;;;;;;1.13;1.13;;;;;;;;;;4936726;29;20417;-65
2023/03/22 08:55:13;;;;;;;1.57;1.33;;;;;;;;;;4937335;29;20415;-65
2023/03/22 08:57:39;;;;;;;3.33;1.27;;;;;;;;;;4936428;29;20419;-65
2023/03/22 09:00:09;;;;;;;2.93;1.40;;;;;;;;;;4936609;29;20482;-65
2023/03/22 09:02:36;;;;;;;0.97;0.97;;;;;;;;;;4936723;29;20409;-65
2023/03/22 09:05:02;;;;;;;1.10;1.10;;;;;;;;;;4935979;29;20419;-65
2023/03/22 09:07:30;;;;;;;1.77;1.10;;;;;;;;;;4936499;29;20416;-65
2023/03/22 09:09:58;;;;;;;1.20;1.10;;;;;;;;;;4936643;29;20455;-65
2023/03/22 09:12:25;;;;;;;1.30;1.20;;;;;;;;;;4936491;29;20419;-65
2023/03/22 09:14:51;;;;;;;1.37;1.03;;;;;;;;;;4936176;29;20519;-65
2023/03/22 09:17:17;;;;;;;1.00;1.00;;;;;;;;;;4936433;29;20840;-66
2023/03/22 09:19:44;;;;;;;1.10;1.10;;;;;;;;;;4934765;29;20582;-66
2023/03/22 09:22:10;;;;;;;6.57;6.07;;;;;;;;;;4936242;29;20447;-66
2023/03/22 09:24:39;;;;;;;1.77;0.80;;;;;;;;;;4936638;29;20444;-65
2023/03/22 09:27:05;;;;;;;0.77;0.77;;;;;;;;;;4935675;29;20467;-66
2023/03/22 09:29:33;;;;;;;0.90;0.90;;;;;;;;;;4935781;29;20424;-65
2023/03/22 09:31:59;;;;;;;2.10;0.97;;;;;;;;;;4935834;29;20420;-65
2023/03/22 09:34:28;;;;;;;1.37;0.70;;;;;;;;;;4936005;29;20995;-66
2023/03/22 09:36:54;;;;;;;1.17;0.80;;;;;;;;;;4936095;29;20474;-66
2023/03/22 09:39:21;;;;;;;1.10;0.80;;;;;;;;;;4935733;29;20507;-66
2023/03/22 09:41:59;;;;;;;0.80;0.80;;;;;;;;;;4936130;29;20396;-65
2023/03/22 09:44:31;;;;;;;0.90;0.90;;;;;;;;;;4935568;29;20504;-65
2023/03/22 09:46:59;;;;;;;1.00;1.00;;;;;;;;;;4934529;29;20417;-66
2023/03/22 09:49:28;;;;;;;1.40;1.10;;;;;;;;;;4936076;29;20452;-66
2023/03/22 09:51:54;;;;;;;1.00;1.00;;;;;;;;;;4935880;29;20420;-65
2023/03/22 09:54:34;;;;;;;6.03;1.03;;;;;;;;;;4935869;29;20455;-65
2023/03/22 09:57:03;;;;;;;0.90;0.90;;;;;;;;;;4935073;29;20444;-65
2023/03/22 09:59:38;;;;;;;1.63;1.00;;;;;;;;;;4934684;29;20475;-65
2023/03/22 10:02:14;;;;;;;0.90;0.90;;;;;;;;;;4934508;29;20428;-66
2023/03/22 10:04:51;;;;;;;1.07;1.03;;;;;;;;;;4935983;29;20477;-66
2023/03/22 10:07:17;;;;;;;1.33;1.20;;;;;;;;;;4935740;29;20418;-66
2023/03/22 10:09:43;;;;;;;1.07;0.90;;;;;;;;;;4934988;29;20464;-67
2023/03/22 10:12:29;;;;;;;1.00;1.00;;;;;;;;;;4935814;29;20432;-66
2023/03/22 10:14:57;;;;;;;0.83;0.83;;;;;;;;;;4935670;29;20509;-65
2023/03/22 10:17:24;;;;;;;1.20;0.93;;;;;;;;;;4935562;29;20832;-66
2023/03/22 10:19:57;;;;;;;0.90;0.90;;;;;;;;;;4935723;29;20548;-66
2023/03/22 10:22:26;;;;;;;1.80;0.97;;;;;;;;;;4935655;29;20469;-66
2023/03/22 10:24:53;;;;;;;1.70;0.80;;;;;;;;;;4935326;29;20949;-66
2023/03/22 10:27:20;;;;;;;1.23;1.17;;;;;;;;;;4935805;29;20433;-66
2023/03/22 10:29:59;;;;;;;0.83;0.83;;;;;;;;;;4935542;29;20441;-65
2023/03/22 10:32:31;;;;;;;1.03;0.93;;;;;;;;;;4935779;29;20794;-67
2023/03/22 10:34:59;;;;;;;0.80;0.80;;;;;;;;;;4935234;29;20442;-66
2023/03/22 10:37:31;;;;;;;0.80;0.80;;;;;;;;;;4935284;29;20748;-66
2023/03/22 10:39:58;;;;;;;0.77;0.77;;;;;;;;;;4935182;29;20477;-66
2023/03/22 10:42:26;;;;;;;1.10;1.07;;;;;;;;;;4935370;29;20421;-66
2023/03/22 10:44:57;;;;;;;1.00;1.00;;;;;;;;;;4935332;29;20467;-65
2023/03/22 10:47:30;;;;;;;1.00;0.90;;;;;;;;;;4935632;29;20412;-65
2023/03/22 10:49:56;;;;;;;1.33;1.23;;;;;;;;;;4935382;29;20443;-65
2023/03/22 10:52:30;;;;;;;1.00;1.00;;;;;;;;;;4935558;29;20518;-66
2023/03/22 10:54:57;;;;;;;1.10;1.10;;;;;;;;;;4935436;29;20447;-67
2023/03/22 10:57:24;;;;;;;0.80;0.80;;;;;;;;;;4934972;29;20415;-66
2023/03/22 10:59:51;;;;;;;1.30;1.20;;;;;;;;;;4935709;29;20479;-66
2023/03/22 11:02:20;;;;;;;1.13;1.03;;;;;;;;;;4935075;29;20489;-66
2023/03/22 11:04:54;;;;;;;1.00;1.00;;;;;;;;;;4935356;29;20477;-65
2023/03/22 11:07:32;;;;;;;1.23;1.13;;;;;;;;;;4935467;29;20456;-65
2023/03/22 11:10:07;;;;;;;2.20;1.00;;;;;;;;;;4939195;29;20467;-66
2023/03/22 11:12:38;;;;;;;3.53;1.30;;;;;;;;;;4938562;29;20428;-66
2023/03/22 11:15:04;;;;;;;1.47;1.37;;;;;;;;;;4938662;29;20456;-65
2023/03/22 11:17:31;;;;;;;2.67;1.23;;;;;;;;;;4938627;29;20782;-65
2023/03/22 11:20:05;;;;;;;2.03;1.07;;;;;;;;;;4938444;29;20821;-65
2023/03/22 11:22:39;;;;;;;1.60;1.60;;;;;;;;;;4938993;29;20436;-65
2023/03/22 11:25:13;;;;;;;2.07;1.03;;;;;;;;;;4938992;29;20441;-66
2023/03/22 11:27:50;;;;;;;1.37;1.37;;;;;;;;;;4938527;29;20419;-66
2023/03/22 11:30:43;;;;;;;1.60;1.60;;;;;;;;;;4938613;29;20524;-65
2023/03/22 11:33:17;;;;;;;3.10;1.30;;;;;;;;;;4937478;28;20427;-65
2023/03/22 11:35:44;;;;;;;1.43;1.33;;;;;;;;;;4938450;29;20438;-65
2023/03/22 11:38:22;;;;;;;1.43;1.23;;;;;;;;;;4938302;29;20419;-64
2023/03/22 11:40:53;;;;;;;1.03;1.03;;;;;;;;;;4938410;29;20498;-65
2023/03/22 11:43:21;;;;;;;3.60;1.50;;;;;;;;;;4938113;29;20789;-65
2023/03/22 11:45:49;;;;;;;1.13;1.13;;;;;;;;;;4936909;29;20478;-65
2023/03/22 11:48:17;;;;;;;1.13;1.13;;;;;;;;;;4938211;29;20755;-65
2023/03/22 11:50:44;;;;;;;1.20;1.20;;;;;;;;;;4937886;29;20453;-65
2023/03/22 11:53:15;;;;;;;1.40;1.30;;;;;;;;;;4937939;29;20472;-65
2023/03/22 11:55:41;;;;;;;1.23;1.13;;;;;;;;;;4937379;29;20970;-65
2023/03/22 11:58:07;;;;;;;1.17;0.90;;;;;;;;;;4937447;29;20416;-65
2023/03/22 12:00:36;;;;;;;1.47;1.47;;;;;;;;;;4937708;29;20441;-65
2023/03/22 12:03:02;;;;;;;2.50;1.10;;;;;;;;;;4937808;29;20435;-65
2023/03/22 12:05:30;;;;;;;1.40;1.30;;;;;;;;;;4937623;29;20443;-65
2023/03/22 12:08:11;;;;;;;1.23;1.23;;;;;;;;;;4937342;29;20855;-65
2023/03/22 12:10:41;;;;;;;3.70;0.97;;;;;;;;;;4937141;29;20443;-65
2023/03/22 12:13:13;;;;;;;1.47;1.30;;;;;;;;;;4937558;29;20452;-66
2023/03/22 12:15:47;;;;;;;1.20;1.20;;;;;;;;;;4937283;29;20482;-65
2023/03/22 12:18:19;;;;;;;0.90;0.90;;;;;;;;;;4936197;29;20416;-65
2023/03/22 12:20:54;;;;;;;5.07;1.13;;;;;;;;;;4936390;29;20458;-65
2023/03/22 12:23:22;;;;;;;1.03;1.03;;;;;;;;;;4937631;29;20415;-65
2023/03/22 12:25:50;;;;;;;0.97;0.97;;;;;;;;;;4937312;29;20446;-65
2023/03/22 12:28:28;;;;;;;5.13;1.40;;;;;;;;;;4936951;29;20416;-65
2023/03/22 12:30:57;;;;;;;2.83;1.10;;;;;;;;;;4937536;29;20427;-64
2023/03/22 12:33:28;;;;;;;1.10;1.10;;;;;;;;;;4937579;29;20417;-64
2023/03/22 12:35:59;;;;;;;2.13;1.30;;;;;;;;;;4936952;29;20466;-64
2023/03/22 12:38:42;;;;;;;1.40;1.40;;;;;;;;;;4936950;29;20511;-65
2023/03/22 12:41:14;;;;;;;1.10;1.10;;;;;;;;;;4937115;29;20945;-65
2023/03/22 12:43:45;;;;;;;0.90;0.90;;;;;;;;;;4936800;29;20423;-64
2023/03/22 12:46:19;;;;;;;1.00;1.00;;;;;;;;;;4936926;29;20447;-64
2023/03/22 12:48:48;;;;;;;0.83;0.83;;;;;;;;;;4936462;29;20940;-64
2023/03/22 12:51:14;;;;;;;1.07;0.97;;;;;;;;;;4936878;29;20438;-65
2023/03/22 12:53:53;;;;;;;1.30;1.20;;;;;;;;;;4936670;29;20424;-65
2023/03/22 12:56:21;;;;;;;1.13;1.13;;;;;;;;;;4936808;29;20447;-64
2023/03/22 12:58:53;;;;;;;3.60;1.07;;;;;;;;;;4936658;29;20985;-64
2023/03/22 13:01:27;;;;;;;1.13;1.03;;;;;;;;;;4935425;29;20458;-64
2023/03/22 13:03:56;;;;;;;1.40;1.30;;;;;;;;;;4936696;29;20983;-65
2023/03/22 13:06:33;;;;;;;0.90;0.90;;;;;;;;;;4935233;29;20447;-65
2023/03/22 13:09:08;;;;;;;1.10;1.10;;;;;;;;;;4936602;29;20448;-65
2023/03/22 13:11:34;;;;;;;0.93;0.93;;;;;;;;;;4934897;29;20458;-65
2023/03/22 13:14:04;;;;;;;0.87;0.77;;;;;;;;;;4936252;29;20419;-65
2023/03/22 13:16:57;;;;;;;1.00;1.00;;;;;;;;;;4936075;29;20449;-65
2023/03/22 13:19:28;;;;;;;1.20;1.17;;;;;;;;;;4936390;29;20463;-65
2023/03/22 13:22:33;;;;;;;1.30;1.30;;;;;;;;;;4936179;29;20440;-64
2023/03/22 13:25:02;;;;;;;1.00;1.00;;;;;;;;;;4972637;28;20431;-65
2023/03/22 13:27:36;;;;;;;0.90;0.90;;;;;;;;;;4954564;28;20775;-66
2023/03/22 13:30:09;;;;;;;1.00;1.00;;;;;;;;;;4936389;29;20416;-64
2023/03/22 13:32:36;;;;;;;0.80;0.80;;;;;;;;;;4935867;29;20503;-65
2023/03/22 13:35:02;;;;;;;0.90;0.90;;;;;;;;;;4934926;29;20429;-66
2023/03/22 13:37:46;;;;;;;4.00;1.07;;;;;;;;;;4935766;29;20465;-64
2023/03/22 13:40:28;;;;;;;2.30;1.30;;;;;;;;;;4935825;29;20500;-65
2023/03/22 13:43:07;;;;;;;0.93;0.93;;;;;;;;;;4936062;29;20400;-64
2023/03/22 13:45:34;;;;;;;0.93;0.93;;;;;;;;;;4935811;29;20416;-65
2023/03/22 13:48:10;;;;;;;0.80;0.80;;;;;;;;;;4935674;29;20442;-65
2023/03/22 13:50:36;;;;;;;1.20;0.90;;;;;;;;;;4935466;29;20952;-65
2023/03/22 13:53:07;;;;;;;1.20;1.10;;;;;;;;;;4935976;29;20830;-63
2023/03/22 13:55:46;;;;;;;1.00;1.00;;;;;;;;;;4935809;29;20926;-63
2023/03/22 13:58:36;;;;;;;0.80;0.80;;;;;;;;;;4935738;29;20927;-64
2023/03/22 14:01:07;;;;;;;1.00;1.00;;;;;;;;;;4939845;28;20551;-64
2023/03/22 14:03:35;;;;;;;0.93;0.93;;;;;;;;;;4935616;29;20416;-64
2023/03/22 14:06:14;;;;;;;1.00;1.00;;;;;;;;;;4934256;29;20418;-65
2023/03/22 14:08:42;;;;;;;1.00;1.00;;;;;;;;;;4935698;29;20903;-64
2023/03/22 14:11:20;;;;;;;1.20;0.73;;;;;;;;;;4935570;29;20478;-65
2023/03/22 14:14:10;;;;;;;1.10;0.97;;;;;;;;;;4935692;29;20789;-64
2023/03/22 14:16:39;;;;;;;2.10;0.83;;;;;;;;;;4935594;29;20446;-63
2023/03/22 14:19:06;;;;;;;2.33;1.03;;;;;;;;;;4935334;29;20462;-64
2023/03/22 14:21:34;;;;;;;1.03;1.03;;;;;;;;;;4935451;29;20945;-64
2023/03/22 14:24:01;;;;;;;1.73;0.90;;;;;;;;;;4935479;29;20455;-63
2023/03/22 14:26:35;;;;;;;1.00;1.00;;;;;;;;;;4935237;29;20451;-64
2023/03/22 14:29:24;;;;;;;1.00;1.00;;;;;;;;;;4935180;29;20916;-64
2023/03/22 14:32:01;;;;;;;1.93;0.70;;;;;;;;;;4939424;28;20463;-65
2023/03/22 14:34:33;;;;;;;1.00;0.93;;;;;;;;;;4935339;29;20442;-65
2023/03/22 14:37:00;;;;;;;1.07;0.80;;;;;;;;;;4934974;29;20474;-65
2023/03/22 14:39:30;;;;;;;3.17;0.97;;;;;;;;;;4935411;29;20465;-64
2023/03/22 14:41:56;;;;;;;0.97;0.97;;;;;;;;;;4935302;29;20422;-64
2023/03/22 14:44:22;;;;;;;0.80;0.80;;;;;;;;;;4938866;29;20422;-64
2023/03/22 14:46:48;;;;;;;1.00;1.00;;;;;;;;;;4938033;29;20830;-64
2023/03/22 14:49:18;;;;;;;0.90;0.90;;;;;;;;;;4939429;29;20879;-65
2023/03/22 14:51:47;;;;;;;1.23;0.93;;;;;;;;;;4938777;29;20818;-65
2023/03/22 14:54:17;;;;;;;1.20;1.20;;;;;;;;;;4938977;29;20527;-64
2023/03/22 14:56:43;;;;;;;1.27;1.17;;;;;;;;;;4938964;29;20493;-64